createdAt,value
2023-05-10T00:02:45.010Z,12.74
2023-05-10T00:05:47.638Z,12.61
2023-05-10T00:08:50.233Z,12.55
2023-05-10T00:11:52.782Z,12.44
2023-05-10T00:14:55.348Z,12.32
2023-05-10T00:17:58.395Z,12.14
2023-05-10T00:21:01.002Z,11.96
2023-05-10T00:24:03.759Z,11.71
2023-05-10T00:27:06.289Z,11.63
2023-05-10T00:30:09.321Z,11.54
2023-05-10T00:33:12.651Z,11.48
2023-05-10T00:36:15.201Z,11.40
2023-05-10T00:39:17.690Z,11.35
2023-05-10T00:42:20.797Z,11.29
2023-05-10T00:45:23.939Z,11.35
2023-05-10T00:48:26.875Z,11.38
2023-05-10T00:51:29.595Z,11.46
2023-05-10T00:54:32.107Z,11.57
2023-05-10T00:57:34.786Z,11.66
2023-05-10T01:00:39.610Z,11.79
2023-05-10T01:03:42.702Z,11.79
2023-05-10T01:06:45.249Z,11.87
2023-05-10T01:09:48.337Z,11.90
2023-05-10T01:12:52.255Z,11.84
2023-05-10T01:15:55.841Z,11.78
2023-05-10T01:18:58.785Z,11.70
2023-05-10T01:22:25.519Z,11.69
2023-05-10T01:26:07.441Z,11.73
2023-05-10T01:29:47.490Z,11.82
2023-05-10T01:32:53.980Z,11.83
2023-05-10T01:36:09.978Z,11.92
2023-05-10T01:39:30.838Z,11.94
2023-05-10T01:42:46.245Z,12.03
2023-05-10T01:46:13.319Z,12.04
2023-05-10T01:49:28.210Z,12.14
2023-05-10T01:52:38.959Z,12.21
2023-05-10T01:55:48.559Z,12.29
2023-05-10T01:58:53.413Z,12.30
2023-05-10T02:01:59.976Z,12.24
2023-05-10T02:05:05.029Z,12.30
2023-05-10T02:08:09.359Z,12.33
2023-05-10T02:11:16.120Z,12.28
2023-05-10T02:14:20.156Z,12.42
2023-05-10T02:17:24.215Z,12.40
2023-05-10T02:20:28.046Z,12.50
2023-05-10T02:23:31.534Z,12.53
2023-05-10T02:26:36.208Z,12.59
2023-05-10T02:29:39.743Z,12.47
2023-05-10T02:32:43.239Z,12.49
2023-05-10T02:35:47.531Z,12.55
2023-05-10T02:38:52.735Z,12.57
2023-05-10T02:41:56.620Z,12.54
2023-05-10T05:41:29.346Z,12.11
2023-05-10T05:44:31.891Z,12.34
2023-05-10T05:47:34.651Z,12.64
2023-05-10T05:50:37.296Z,12.89
2023-05-10T05:53:42.711Z,12.95
2023-05-10T05:56:45.525Z,12.76
2023-05-10T05:59:48.400Z,12.82
2023-05-10T06:02:52.062Z,12.85
2023-05-10T06:05:54.704Z,13.02
2023-05-10T06:08:57.767Z,13.05
2023-05-10T06:12:01.569Z,13.11
2023-05-10T06:15:04.944Z,13.19
2023-05-10T06:18:10.024Z,13.29
2023-05-10T06:21:21.146Z,13.31
2023-05-10T06:24:24.240Z,13.48
2023-05-10T06:27:27.823Z,13.56
2023-05-10T06:30:30.640Z,13.66
2023-05-10T06:33:33.791Z,13.85
2023-05-10T06:36:36.292Z,13.77
2023-05-10T06:39:41.483Z,13.71
2023-05-10T06:42:46.011Z,13.93
2023-05-10T06:45:49.345Z,14.12
2023-05-10T06:48:51.871Z,14.35
2023-05-10T06:51:54.566Z,14.35
2023-05-10T06:55:18.371Z,14.47
2023-05-10T06:58:21.104Z,14.63
2023-05-10T07:01:23.738Z,14.76
2023-05-10T07:04:26.678Z,14.67
2023-05-10T07:07:29.946Z,14.92
2023-05-10T07:10:32.421Z,15.15
2023-05-10T07:13:35.555Z,15.41
2023-05-10T07:16:38.143Z,15.29
2023-05-10T07:19:40.838Z,15.19
2023-05-10T07:22:43.616Z,15.42
2023-05-10T07:25:50.534Z,15.60
2023-05-10T07:28:53.025Z,15.90
2023-05-10T07:31:58.521Z,16.29
2023-05-10T07:35:01.758Z,16.21
2023-05-10T07:38:04.400Z,16.09
2023-05-10T07:41:06.890Z,16.31
2023-05-10T07:44:09.483Z,16.14
2023-05-10T07:47:12.143Z,16.67
2023-05-10T07:50:15.603Z,16.72
2023-05-10T07:53:19.573Z,16.87
2023-05-10T07:56:22.077Z,17.14
2023-05-10T07:59:26.909Z,17.37
2023-05-10T08:02:29.486Z,17.51
2023-05-10T08:05:34.059Z,17.02
2023-05-10T08:08:38.168Z,16.63
2023-05-10T08:11:40.735Z,16.72
2023-05-10T08:14:43.793Z,16.95
2023-05-10T08:17:46.422Z,16.98
2023-05-10T08:20:53.606Z,16.81
2023-05-10T08:23:56.366Z,16.82
2023-05-10T08:26:59.431Z,17.18
2023-05-10T13:34:42.892Z,24.75
2023-05-10T13:37:45.731Z,24.77
2023-05-10T13:40:48.297Z,24.29
2023-05-10T13:43:50.842Z,22.87
2023-05-10T13:46:53.409Z,23.89
2023-05-10T13:49:56.309Z,23.14
2023-05-10T13:52:58.867Z,22.17
2023-05-10T13:56:01.628Z,22.08
2023-05-10T13:59:06.278Z,21.93
2023-05-10T14:02:08.955Z,21.41
2023-05-10T14:05:11.466Z,21.61
2023-05-10T14:08:14.333Z,21.29
2023-05-10T14:11:16.978Z,22.63
2023-05-10T14:14:19.504Z,21.47
2023-05-10T14:17:23.247Z,21.46
2023-05-10T14:20:25.807Z,20.92
2023-05-10T14:23:29.829Z,21.32
2023-05-10T14:26:32.746Z,22.19
2023-05-10T14:29:35.233Z,22.35
2023-05-10T14:32:38.348Z,23.08
2023-05-10T14:35:42.248Z,23.54
2023-05-10T14:38:45.075Z,22.32
2023-05-10T14:41:48.408Z,21.69
2023-05-10T14:44:51.156Z,21.06
2023-05-10T14:47:53.793Z,22.21
2023-05-10T14:50:56.859Z,21.64
2023-05-10T14:53:59.393Z,21.24
2023-05-10T14:57:01.860Z,20.93
2023-05-10T15:00:05.010Z,21.08
2023-05-10T15:03:08.219Z,21.16
2023-05-10T15:06:11.681Z,21.34
2023-05-10T15:09:14.158Z,21.56
2023-05-10T15:12:16.707Z,22.32
2023-05-10T15:15:19.260Z,21.91
2023-05-10T15:18:23.717Z,21.67
2023-05-10T15:21:26.209Z,23.15
2023-05-10T15:24:29.042Z,23.87
2023-05-10T15:27:31.533Z,23.31
2023-05-10T15:30:34.029Z,22.23
2023-05-10T15:33:38.257Z,21.41
2023-05-10T15:36:40.805Z,22.37
2023-05-10T15:39:43.353Z,22.41
2023-05-10T15:42:45.837Z,23.11
2023-05-10T15:45:48.423Z,24.55
2023-05-10T15:48:50.932Z,25.50
2023-05-10T15:51:53.558Z,25.14
2023-05-10T15:54:56.044Z,26.01
2023-05-10T15:57:58.556Z,26.56
2023-05-10T16:01:01.329Z,26.28
2023-05-10T16:04:04.110Z,25.22
2023-05-10T16:07:06.603Z,24.91
2023-05-10T16:10:11.177Z,25.19
2023-05-10T16:13:15.154Z,24.40
2023-05-10T16:16:17.686Z,24.54
2023-05-10T16:19:20.373Z,24.28
2023-05-10T16:22:27.509Z,25.01
2023-05-10T16:25:30.027Z,24.37
2023-05-10T16:28:32.558Z,24.57
2023-05-10T16:31:35.428Z,25.00
2023-05-10T16:34:38.107Z,24.83
2023-05-10T16:37:40.877Z,24.15
2023-05-10T16:40:43.284Z,24.52
2023-05-10T16:43:45.757Z,24.30
2023-05-10T16:46:48.997Z,23.90
2023-05-10T16:49:51.554Z,23.31
2023-05-10T16:52:54.068Z,22.53
2023-05-10T16:55:56.923Z,22.47
2023-05-10T16:58:59.423Z,22.28
2023-05-10T17:02:02.096Z,21.10
2023-05-10T17:05:05.269Z,21.17
2023-05-10T17:08:07.851Z,20.95
2023-05-10T17:11:10.493Z,20.30
2023-05-10T17:14:13.511Z,20.07
2023-05-10T17:17:16.091Z,19.94
2023-05-10T17:20:18.628Z,19.87
2023-05-10T17:23:21.080Z,19.63
2023-05-10T17:26:23.699Z,19.63
2023-05-10T17:29:28.231Z,19.38
2023-05-10T17:32:31.161Z,18.93
2023-05-10T17:35:34.240Z,18.95
2023-05-10T17:38:36.925Z,18.69
2023-05-10T17:41:39.467Z,18.69
2023-05-10T17:44:42.165Z,18.25
2023-05-10T17:47:44.759Z,18.24
2023-05-10T17:50:50.105Z,18.03
2023-05-10T17:53:53.847Z,17.88
2023-05-10T17:56:58.107Z,17.84
2023-05-10T18:00:02.273Z,17.61
2023-05-10T18:03:07.587Z,17.38
2023-05-10T18:06:10.611Z,17.45
2023-05-10T18:09:13.261Z,17.27
2023-05-10T18:12:15.911Z,17.26
2023-05-10T18:15:18.544Z,17.18
2023-05-10T18:18:21.600Z,17.11
2023-05-10T18:21:24.384Z,17.14
2023-05-10T18:24:38.324Z,17.02
2023-05-10T18:27:42.429Z,16.84
2023-05-10T18:30:45.062Z,16.77
2023-05-10T18:33:47.669Z,16.67
2023-05-10T18:36:50.224Z,16.62
2023-05-10T18:39:53.010Z,16.54
2023-05-10T18:42:55.537Z,16.52
2023-05-10T18:45:58.037Z,16.49
2023-05-10T18:49:00.650Z,16.32
2023-05-10T18:52:03.359Z,16.28
2023-05-10T18:55:06.813Z,16.24
2023-05-10T18:58:09.460Z,16.16
2023-05-10T19:01:12.129Z,16.16
2023-05-10T19:04:15.309Z,16.18
2023-05-10T19:07:17.805Z,16.16
2023-05-10T19:10:20.752Z,16.19
2023-05-10T19:13:24.419Z,16.11
2023-05-10T19:16:28.890Z,16.12
2023-05-10T19:19:32.945Z,16.14
2023-05-10T19:22:47.025Z,16.14
2023-05-10T19:25:59.644Z,15.93
2023-05-10T19:29:02.502Z,15.82
2023-05-10T19:32:05.814Z,15.81
2023-05-10T19:35:09.037Z,15.81
2023-05-10T19:38:12.106Z,15.80
2023-05-10T19:41:14.993Z,15.88
2023-05-10T19:44:18.107Z,15.87
2023-05-10T19:47:21.462Z,15.81
2023-05-10T19:50:23.999Z,15.73
2023-05-10T19:53:27.846Z,15.75
2023-05-10T19:56:30.915Z,15.77
2023-05-10T19:59:33.878Z,15.82
2023-05-10T20:02:36.660Z,15.76
2023-05-10T20:05:39.307Z,15.69
2023-05-10T20:08:41.883Z,15.64
2023-05-10T20:11:44.386Z,15.64
2023-05-10T20:14:46.931Z,15.60
2023-05-10T20:17:54.065Z,15.51
2023-05-10T20:20:59.569Z,15.46
2023-05-10T20:24:02.052Z,15.38
2023-05-10T20:27:04.661Z,15.21
2023-05-10T20:30:07.836Z,15.13
2023-05-10T20:33:10.588Z,15.09
2023-05-10T20:36:13.078Z,15.06
2023-05-10T20:39:15.520Z,14.98
2023-05-10T20:42:18.063Z,14.99
2023-05-10T20:45:20.772Z,14.97
2023-05-10T20:48:23.717Z,14.87
2023-05-10T20:51:26.212Z,14.90
2023-05-10T20:54:28.655Z,14.93
2023-05-10T20:57:31.238Z,14.92
2023-05-10T21:00:33.654Z,14.95
2023-05-10T21:03:36.230Z,14.92
2023-05-10T21:06:38.942Z,14.89
2023-05-10T21:09:41.455Z,14.86
2023-05-10T21:12:43.962Z,14.88
2023-05-10T21:15:46.676Z,14.91
2023-05-10T21:18:49.296Z,14.93
2023-05-10T21:21:52.494Z,14.93
2023-05-10T21:24:55.044Z,14.90
2023-05-10T21:27:57.744Z,14.95
2023-05-10T21:31:00.268Z,14.90
2023-05-10T21:34:02.766Z,14.83
2023-05-10T21:37:05.229Z,14.80
2023-05-10T21:40:08.163Z,14.77
2023-05-10T21:43:11.377Z,14.69
2023-05-10T21:46:14.355Z,14.67
2023-05-10T21:49:16.854Z,14.61
2023-05-10T21:52:19.341Z,14.62
2023-05-10T21:55:22.133Z,14.64
2023-05-10T21:58:24.593Z,14.59
2023-05-10T22:01:28.281Z,14.61
2023-05-10T22:04:30.886Z,14.55
2023-05-10T22:07:33.735Z,14.47
2023-05-10T22:10:36.198Z,14.50
2023-05-10T22:13:38.782Z,14.51
2023-05-10T22:16:41.369Z,14.43
2023-05-10T22:19:43.983Z,14.43
2023-05-10T22:22:46.567Z,14.44
2023-05-10T22:25:49.040Z,14.44
2023-05-10T22:28:51.834Z,14.40
2023-05-10T22:31:54.340Z,14.36
2023-05-10T22:34:57.007Z,14.34
2023-05-10T22:37:59.459Z,14.28
2023-05-10T22:41:01.978Z,14.18
2023-05-10T22:44:05.039Z,14.08
2023-05-10T22:47:08.987Z,14.00
2023-05-10T22:50:12.413Z,13.98
2023-05-10T22:53:15.089Z,13.90
2023-05-10T22:56:17.918Z,13.97
2023-05-10T22:59:20.957Z,13.97
2023-05-10T23:02:23.617Z,14.00
2023-05-10T23:05:26.222Z,13.98
2023-05-10T23:08:28.667Z,13.95
2023-05-10T23:11:31.265Z,13.87
2023-05-10T23:14:33.967Z,13.87
2023-05-10T23:17:36.585Z,13.83
2023-05-10T23:20:42.824Z,13.70
2023-05-10T23:23:45.438Z,13.57
2023-05-10T23:26:48.069Z,13.49
2023-05-10T23:29:55.644Z,13.51
2023-05-10T23:32:58.302Z,13.50
2023-05-10T23:36:00.994Z,13.46
2023-05-10T23:39:05.007Z,13.45
2023-05-10T23:42:07.678Z,13.44
2023-05-10T23:45:10.712Z,13.47
2023-05-10T23:48:13.308Z,13.57
2023-05-10T23:51:15.887Z,13.67
2023-05-10T23:54:19.656Z,13.71
2023-05-10T23:57:22.433Z,13.77
